createdAt,value
2018-12-22T00:01:02.999Z,10.50
2018-12-22T00:03:31.283Z,10.40
2018-12-22T00:05:58.874Z,10.40
2018-12-22T00:08:26.435Z,10.30
2018-12-22T00:10:54.032Z,10.20
2018-12-22T00:13:21.706Z,10.20
2018-12-22T00:15:49.290Z,10.20
2018-12-22T00:18:16.854Z,10.20
2018-12-22T00:20:44.444Z,10.20
2018-12-22T00:23:12.005Z,10.20
2018-12-22T00:25:39.586Z,10.30
2018-12-22T00:28:07.154Z,10.30
2018-12-22T00:30:34.738Z,10.30
2018-12-22T00:33:02.303Z,10.30
2018-12-22T00:35:29.895Z,10.30
2018-12-22T00:37:57.461Z,10.30
2018-12-22T00:40:25.049Z,10.40
2018-12-22T00:42:52.610Z,10.20
2018-12-22T00:45:20.193Z,10.30
2018-12-22T00:47:47.782Z,10.20
2018-12-22T00:50:15.406Z,10.20
2018-12-22T00:52:44.529Z,10.20
2018-12-22T00:55:12.434Z,10.10
2018-12-22T00:57:40.051Z,10.00
2018-12-22T01:00:08.238Z,9.90
2018-12-22T01:02:35.839Z,9.80
2018-12-22T01:05:03.531Z,9.80
2018-12-22T01:07:31.122Z,9.80
2018-12-22T01:09:58.670Z,9.70
2018-12-22T01:12:26.256Z,9.80
2018-12-22T01:14:53.810Z,9.80
2018-12-22T01:17:21.391Z,9.90
2018-12-22T01:19:48.953Z,9.90
2018-12-22T01:22:16.535Z,9.90
2018-12-22T01:24:44.523Z,9.90
2018-12-22T01:27:12.126Z,10.00
2018-12-22T01:29:39.695Z,9.90
2018-12-22T01:32:07.286Z,9.90
2018-12-22T01:34:34.879Z,9.80
2018-12-22T01:37:02.443Z,9.90
2018-12-22T01:39:30.034Z,9.90
2018-12-22T01:41:57.599Z,9.80
2018-12-22T01:44:25.196Z,9.80
2018-12-22T01:46:52.753Z,9.80
2018-12-22T01:49:20.335Z,9.80
2018-12-22T01:51:47.895Z,9.70
2018-12-22T01:54:15.493Z,9.80
2018-12-22T01:56:43.055Z,9.80
2018-12-22T01:59:10.646Z,9.90
2018-12-22T02:01:38.199Z,9.90
2018-12-22T02:04:05.775Z,9.90
2018-12-22T02:06:33.326Z,9.90
2018-12-22T02:09:00.930Z,9.90
2018-12-22T02:11:28.487Z,10.00
2018-12-22T02:13:56.070Z,10.00
2018-12-22T02:16:23.658Z,10.00
2018-12-22T02:18:51.213Z,10.00
2018-12-22T02:21:18.799Z,10.10
2018-12-22T02:23:46.362Z,10.00
2018-12-22T02:26:13.942Z,9.90
2018-12-22T02:28:42.960Z,9.80
2018-12-22T02:31:10.555Z,9.90
2018-12-22T02:33:38.120Z,9.80
2018-12-22T02:36:05.716Z,9.80
2018-12-22T02:38:33.285Z,9.80
2018-12-22T02:41:01.024Z,9.80
2018-12-22T02:43:28.592Z,9.90
2018-12-22T02:45:56.186Z,9.80
2018-12-22T02:48:23.751Z,9.90
2018-12-22T02:50:51.341Z,9.90
2018-12-22T02:53:18.916Z,10.00
2018-12-22T02:55:46.511Z,10.00
2018-12-22T02:58:14.087Z,10.00
2018-12-22T03:00:41.683Z,10.00
2018-12-22T03:03:10.065Z,10.00
2018-12-22T03:05:38.604Z,10.10
2018-12-22T03:08:07.032Z,10.10
2018-12-22T03:10:36.254Z,10.00
2018-12-22T03:13:04.053Z,10.00
2018-12-22T03:15:32.560Z,9.90
2018-12-22T03:18:00.947Z,9.90
2018-12-22T03:20:29.767Z,10.00
2018-12-22T03:22:58.240Z,10.00
2018-12-22T03:25:26.129Z,9.90
2018-12-22T03:27:53.718Z,9.80
2018-12-22T03:30:21.337Z,9.90
2018-12-22T03:32:49.010Z,9.90
2018-12-22T03:35:16.642Z,9.80
2018-12-22T03:37:44.283Z,9.80
2018-12-22T03:40:12.058Z,9.90
2018-12-22T03:42:39.642Z,9.90
2018-12-22T03:45:07.200Z,9.90
2018-12-22T03:47:34.778Z,9.80
2018-12-22T03:50:02.368Z,9.90
2018-12-22T03:52:29.962Z,10.00
2018-12-22T03:54:57.554Z,10.00
2018-12-22T03:57:25.115Z,10.10
2018-12-22T03:59:52.707Z,10.10
2018-12-22T04:02:20.280Z,10.10
2018-12-22T04:04:47.874Z,10.10
2018-12-22T04:07:15.509Z,10.30
2018-12-22T04:09:43.198Z,10.20
2018-12-22T04:12:10.758Z,10.30
2018-12-22T04:14:38.360Z,10.20
2018-12-22T04:17:05.926Z,10.20
2018-12-22T04:19:33.518Z,10.20
2018-12-22T04:22:01.089Z,10.20
2018-12-22T04:24:28.687Z,10.20
2018-12-22T04:26:56.256Z,10.30
2018-12-22T04:29:23.862Z,10.30
2018-12-22T04:31:51.423Z,10.40
2018-12-22T04:34:19.012Z,10.50
2018-12-22T04:36:46.608Z,10.50
2018-12-22T04:39:14.178Z,10.50
2018-12-22T04:41:41.765Z,10.60
2018-12-22T04:44:09.412Z,10.80
2018-12-22T04:46:36.998Z,10.80
2018-12-22T04:49:04.706Z,10.90
2018-12-22T04:51:32.382Z,10.80
2018-12-22T04:54:00.060Z,10.90
2018-12-22T04:56:27.782Z,10.90
2018-12-22T04:58:55.347Z,10.80
2018-12-22T05:01:22.930Z,10.80
2018-12-22T05:03:50.487Z,10.90
2018-12-22T05:06:18.083Z,11.00
2018-12-22T05:08:45.644Z,11.00
2018-12-22T05:11:13.235Z,10.90
2018-12-22T05:13:40.794Z,11.00
2018-12-22T05:16:08.383Z,11.00
2018-12-22T05:18:35.971Z,11.00
2018-12-22T05:21:03.526Z,11.00
2018-12-22T05:23:31.112Z,11.00
2018-12-22T05:25:58.670Z,11.00
2018-12-22T05:28:26.266Z,10.90
2018-12-22T05:30:53.838Z,11.00
2018-12-22T05:33:21.434Z,11.00
2018-12-22T05:35:49.007Z,10.90
2018-12-22T05:38:16.827Z,11.00
2018-12-22T05:40:44.399Z,10.90
2018-12-22T05:43:11.995Z,10.90
2018-12-22T05:45:39.566Z,11.00
2018-12-22T05:48:07.151Z,11.00
2018-12-22T05:50:34.718Z,10.90
2018-12-22T05:53:02.311Z,11.00
2018-12-22T05:55:29.872Z,11.00
2018-12-22T05:57:57.456Z,11.00
2018-12-22T06:00:25.021Z,11.00
2018-12-22T06:02:52.606Z,11.00
2018-12-22T06:05:20.187Z,11.00
2018-12-22T06:07:47.751Z,11.00
2018-12-22T06:10:15.338Z,10.90
2018-12-22T06:12:42.907Z,10.90
2018-12-22T06:15:10.494Z,10.80
2018-12-22T06:17:38.054Z,10.80
2018-12-22T06:20:08.247Z,10.70
2018-12-22T06:22:35.812Z,10.70
2018-12-22T06:25:03.740Z,10.70
2018-12-22T06:27:31.382Z,10.70
2018-12-22T06:29:58.991Z,10.70
2018-12-22T06:32:26.564Z,10.80
2018-12-22T06:34:54.151Z,10.80
2018-12-22T06:37:21.735Z,10.70
2018-12-22T06:39:49.327Z,10.80
2018-12-22T06:42:16.887Z,10.90
2018-12-22T06:44:44.475Z,11.00
2018-12-22T06:47:12.058Z,10.90
2018-12-22T06:49:39.618Z,11.10
2018-12-22T06:52:07.272Z,11.00
2018-12-22T06:54:35.759Z,11.00
2018-12-22T06:57:03.574Z,11.00
2018-12-22T06:59:31.155Z,11.10
2018-12-22T07:01:58.755Z,11.20
2018-12-22T07:04:27.412Z,11.20
2018-12-22T07:06:55.047Z,11.00
2018-12-22T07:09:22.658Z,11.20
2018-12-22T07:11:50.997Z,11.00
2018-12-22T07:14:18.790Z,11.00
2018-12-22T07:16:46.387Z,11.00
2018-12-22T07:19:13.956Z,11.00
2018-12-22T07:21:41.551Z,11.00
2018-12-22T07:24:12.032Z,11.00
2018-12-22T07:26:40.219Z,11.10
2018-12-22T07:29:07.806Z,11.00
2018-12-22T07:31:35.374Z,11.10
2018-12-22T07:34:02.975Z,11.00
2018-12-22T07:36:30.559Z,11.00
2018-12-22T07:38:58.159Z,11.10
2018-12-22T07:41:25.726Z,11.10
2018-12-22T07:43:53.318Z,11.10
2018-12-22T07:46:20.878Z,11.00
2018-12-22T07:48:48.962Z,10.90
2018-12-22T07:51:17.704Z,10.80
2018-12-22T07:53:46.171Z,11.10
2018-12-22T07:56:15.199Z,11.00
2018-12-22T07:58:44.208Z,11.10
2018-12-22T08:01:12.243Z,11.10
2018-12-22T08:03:40.003Z,11.10
2018-12-22T08:06:07.576Z,11.10
2018-12-22T08:08:35.435Z,11.10
2018-12-22T08:11:03.092Z,11.20
2018-12-22T08:13:30.854Z,11.00
2018-12-22T08:15:58.443Z,11.20
2018-12-22T08:18:26.701Z,11.10
2018-12-22T08:20:55.182Z,11.10
2018-12-22T08:23:23.778Z,11.20
2018-12-22T08:25:52.658Z,11.20
2018-12-22T08:28:20.406Z,11.10
2018-12-22T08:30:48.195Z,11.20
2018-12-22T08:33:16.361Z,11.10
2018-12-22T08:35:43.955Z,11.20
2018-12-22T08:38:11.527Z,11.20
2018-12-22T08:40:39.124Z,11.20
2018-12-22T08:43:06.695Z,11.10
2018-12-22T08:45:34.522Z,11.00
2018-12-22T08:48:02.114Z,11.10
2018-12-22T08:50:29.706Z,11.10
2018-12-22T08:52:57.295Z,11.00
2018-12-22T08:55:24.859Z,11.00
2018-12-22T08:57:52.559Z,11.00
2018-12-22T09:00:20.118Z,11.00
2018-12-22T09:02:47.904Z,11.00
2018-12-22T09:05:15.658Z,11.00
2018-12-22T09:07:43.262Z,11.00
2018-12-22T09:10:10.835Z,11.00
2018-12-22T09:12:38.418Z,11.10
2018-12-22T09:15:08.235Z,11.10
2018-12-22T09:17:35.839Z,11.20
2018-12-22T09:20:05.626Z,11.20
2018-12-22T09:22:34.126Z,11.10
2018-12-22T09:25:01.738Z,11.00
2018-12-22T09:27:29.346Z,11.10
2018-12-22T09:29:56.920Z,11.00
2018-12-22T09:32:24.502Z,11.10
2018-12-22T09:34:52.069Z,11.10
2018-12-22T09:37:19.654Z,11.10
2018-12-22T09:39:47.272Z,11.10
2018-12-22T09:42:14.834Z,11.20
2018-12-22T09:44:42.431Z,11.20
2018-12-22T09:47:10.644Z,11.20
2018-12-22T09:49:38.243Z,11.20
2018-12-22T09:52:05.807Z,11.20
2018-12-22T09:54:33.404Z,11.20
2018-12-22T09:57:00.977Z,11.20
2018-12-22T09:59:28.574Z,11.20
2018-12-22T10:01:56.130Z,11.20
2018-12-22T10:04:23.722Z,11.20
2018-12-22T10:06:51.283Z,11.20
2018-12-22T10:09:19.029Z,11.30
2018-12-22T10:11:46.586Z,11.20
2018-12-22T10:14:14.174Z,11.20
2018-12-22T10:16:41.736Z,11.20
2018-12-22T10:19:09.327Z,11.10
2018-12-22T10:21:36.920Z,11.20
2018-12-22T10:24:04.474Z,11.20
2018-12-22T10:26:32.147Z,11.20
2018-12-22T10:28:59.711Z,11.30
2018-12-22T10:31:27.385Z,11.40
2018-12-22T10:33:54.989Z,11.40
2018-12-22T10:36:22.670Z,11.50
2018-12-22T10:38:50.234Z,11.30
2018-12-22T10:41:17.826Z,11.20
2018-12-22T10:43:45.495Z,11.00
2018-12-22T10:46:13.130Z,10.90
2018-12-22T10:48:40.690Z,10.90
2018-12-22T10:51:08.274Z,10.80
2018-12-22T10:53:35.850Z,10.80
2018-12-22T10:56:03.451Z,10.70
2018-12-22T10:58:31.027Z,10.70
2018-12-22T11:00:58.633Z,10.70
2018-12-22T11:03:26.206Z,10.80
2018-12-22T11:05:53.790Z,10.80
2018-12-22T11:08:21.386Z,10.80
2018-12-22T11:10:48.943Z,10.80
2018-12-22T11:13:16.523Z,10.70
2018-12-22T11:15:44.094Z,10.70
2018-12-22T11:18:11.685Z,10.70
2018-12-22T11:20:39.252Z,10.80
2018-12-22T11:23:07.642Z,10.70
2018-12-22T11:25:35.201Z,10.80
2018-12-22T11:28:03.394Z,10.60
2018-12-22T11:30:31.073Z,10.70
2018-12-22T11:32:58.659Z,10.70
2018-12-22T11:35:26.233Z,10.60
2018-12-22T11:37:53.829Z,10.70
2018-12-22T11:40:21.395Z,10.70
2018-12-22T11:42:48.995Z,10.70
2018-12-22T11:45:16.561Z,10.70
2018-12-22T11:47:46.790Z,10.70
2018-12-22T11:50:19.151Z,10.60
2018-12-22T11:52:47.363Z,10.50
2018-12-22T11:55:14.951Z,10.50
2018-12-22T11:57:42.525Z,10.50
2018-12-22T12:00:10.631Z,10.50
2018-12-22T12:02:38.202Z,10.50
2018-12-22T12:05:08.719Z,10.50
2018-12-22T12:07:36.486Z,10.50
2018-12-22T12:10:06.823Z,10.60
2018-12-22T12:12:35.090Z,10.60
2018-12-22T12:15:05.144Z,10.50
2018-12-22T12:17:37.682Z,10.60
2018-12-22T12:20:06.531Z,10.60
2018-12-22T12:22:35.430Z,10.60
2018-12-22T12:25:03.143Z,10.60
2018-12-22T12:27:30.745Z,10.60
2018-12-22T12:29:58.322Z,10.60
2018-12-22T12:32:25.920Z,10.60
2018-12-22T12:34:53.484Z,10.60
2018-12-22T12:37:21.075Z,10.50
2018-12-22T12:39:48.639Z,10.50
2018-12-22T12:42:16.231Z,10.50
2018-12-22T12:44:43.855Z,10.50
2018-12-22T12:47:11.447Z,10.50
2018-12-22T12:49:39.012Z,10.40
2018-12-22T12:52:06.598Z,10.40
2018-12-22T12:54:34.164Z,10.40
2018-12-22T12:57:01.747Z,10.40
2018-12-22T12:59:29.310Z,10.40
2018-12-22T13:02:01.028Z,10.30
2018-12-22T13:04:26.496Z,10.40
2018-12-22T13:06:54.092Z,10.40
2018-12-22T13:09:21.658Z,10.50
2018-12-22T13:11:49.254Z,10.40
2018-12-22T13:14:16.846Z,10.40
2018-12-22T13:16:44.422Z,10.50
2018-12-22T13:19:12.014Z,10.40
2018-12-22T13:21:39.662Z,10.50
2018-12-22T13:24:07.264Z,10.50
2018-12-22T13:26:36.853Z,10.50
2018-12-22T13:29:04.469Z,10.50
2018-12-22T13:31:32.054Z,10.50
2018-12-22T13:33:59.647Z,10.60
2018-12-22T13:36:34.594Z,10.50
2018-12-22T13:38:56.862Z,10.50
2018-12-22T13:41:24.429Z,10.50
2018-12-22T13:43:52.011Z,10.50
2018-12-22T13:46:19.581Z,10.60
2018-12-22T13:48:47.296Z,10.50
2018-12-22T13:51:20.013Z,10.50
2018-12-22T13:53:48.055Z,10.50
2018-12-22T13:56:15.889Z,10.40
2018-12-22T13:58:43.566Z,10.40
2018-12-22T14:01:11.267Z,10.50
2018-12-22T14:03:38.951Z,10.50
2018-12-22T14:06:07.727Z,10.40
2018-12-22T14:08:35.433Z,10.30
2018-12-22T14:11:03.110Z,10.40
2018-12-22T14:13:30.698Z,10.40
2018-12-22T14:15:58.326Z,10.40
2018-12-22T14:18:30.045Z,10.50
2018-12-22T14:20:57.779Z,10.40
2018-12-22T14:23:31.481Z,10.40
2018-12-22T14:25:59.232Z,10.40
2018-12-22T14:28:26.871Z,10.40
2018-12-22T14:30:54.500Z,10.30
2018-12-22T14:33:22.054Z,10.30
2018-12-22T14:35:49.634Z,10.20
2018-12-22T14:38:17.217Z,10.20
2018-12-22T14:40:44.787Z,10.20
2018-12-22T14:43:12.375Z,10.10
2018-12-22T14:45:39.942Z,10.00
2018-12-22T14:48:07.539Z,10.10
2018-12-22T14:50:35.105Z,10.10
2018-12-22T14:53:02.708Z,9.90
2018-12-22T14:55:30.278Z,9.70
2018-12-22T14:57:59.587Z,9.60
2018-12-22T15:00:27.139Z,9.50
2018-12-22T15:02:54.719Z,9.50
2018-12-22T15:05:22.279Z,9.40
2018-12-22T15:07:49.864Z,9.40
2018-12-22T15:10:17.419Z,9.30
2018-12-22T15:12:45.000Z,9.30
2018-12-22T15:15:12.600Z,9.30
2018-12-22T15:17:42.356Z,9.30
2018-12-22T15:20:15.302Z,9.30
2018-12-22T15:22:42.871Z,9.30
2018-12-22T15:25:10.476Z,9.20
2018-12-22T15:27:38.043Z,9.30
2018-12-22T15:30:10.175Z,9.30
2018-12-22T15:32:44.085Z,9.20
2018-12-22T15:35:08.784Z,9.30
2018-12-22T15:37:36.351Z,9.20
2018-12-22T15:40:08.124Z,9.30
2018-12-22T15:42:35.683Z,9.20
2018-12-22T15:45:09.095Z,9.10
2018-12-22T15:47:36.658Z,9.20
2018-12-22T15:50:08.268Z,9.20
2018-12-22T15:52:35.830Z,9.20
2018-12-22T15:55:05.138Z,9.20
2018-12-22T15:57:32.690Z,9.30
2018-12-22T16:00:00.271Z,9.30
2018-12-22T16:02:27.888Z,9.30
2018-12-22T16:04:55.471Z,9.40
2018-12-22T16:07:23.054Z,9.10
2018-12-22T16:09:54.083Z,9.00
2018-12-22T16:12:23.300Z,9.00
2018-12-22T16:14:50.899Z,8.80
2018-12-22T16:17:18.542Z,8.90
2018-12-22T16:19:46.148Z,8.90
2018-12-22T16:22:13.759Z,9.10
2018-12-22T16:24:41.392Z,9.00
2018-12-22T16:27:08.986Z,8.90
2018-12-22T16:29:36.805Z,8.80
2018-12-22T16:32:05.115Z,8.90
2018-12-22T16:34:33.522Z,8.80
2018-12-22T16:37:01.143Z,8.90
2018-12-22T16:39:28.818Z,9.00
2018-12-22T16:41:56.402Z,9.00
2018-12-22T16:44:23.986Z,8.70
2018-12-22T16:46:51.579Z,8.40
2018-12-22T16:49:19.130Z,8.50
2018-12-22T16:51:46.715Z,8.50
2018-12-22T16:54:14.277Z,8.20
2018-12-22T16:56:41.855Z,8.20
2018-12-22T16:59:09.435Z,8.10
2018-12-22T17:01:39.627Z,8.20
2018-12-22T17:04:07.219Z,8.20
2018-12-22T17:06:34.996Z,8.30
2018-12-22T17:09:02.586Z,8.30
2018-12-22T17:11:30.139Z,8.20
2018-12-22T17:13:57.720Z,8.10
2018-12-22T17:16:25.283Z,8.10
2018-12-22T17:18:52.873Z,8.10
2018-12-22T17:21:21.867Z,8.00
2018-12-22T17:23:56.424Z,8.00
2018-12-22T17:26:27.116Z,8.10
2018-12-22T17:28:54.705Z,8.10
2018-12-22T17:31:22.262Z,8.10
2018-12-22T17:33:49.843Z,8.10
2018-12-22T17:36:17.399Z,8.20
2018-12-22T17:38:44.986Z,8.20
2018-12-22T17:41:12.563Z,8.10
2018-12-22T17:43:40.238Z,8.10
2018-12-22T17:46:07.886Z,8.20
2018-12-22T17:48:35.703Z,8.10
2018-12-22T17:51:03.300Z,8.00
2018-12-22T17:53:30.865Z,8.00
2018-12-22T17:55:58.592Z,8.00
2018-12-22T17:58:26.156Z,8.00
2018-12-22T18:00:54.366Z,8.00
2018-12-22T18:03:27.450Z,8.10
2018-12-22T18:05:52.096Z,8.10
2018-12-22T18:08:19.772Z,8.10
2018-12-22T18:10:47.355Z,8.10
2018-12-22T18:13:14.910Z,8.10
2018-12-22T18:15:42.490Z,8.10
2018-12-22T18:18:10.066Z,8.10
2018-12-22T18:20:37.648Z,8.10
2018-12-22T18:23:05.200Z,8.10
2018-12-22T18:25:32.779Z,8.00
2018-12-22T18:28:00.362Z,8.10
2018-12-22T18:30:27.919Z,8.10
2018-12-22T18:32:55.502Z,8.20
2018-12-22T18:35:23.059Z,8.20
2018-12-22T18:37:50.651Z,8.20
2018-12-22T18:40:21.138Z,8.30
2018-12-22T18:42:48.723Z,8.30
2018-12-22T18:45:16.299Z,8.10
2018-12-22T18:47:44.215Z,8.10
2018-12-22T18:50:16.533Z,8.20
2018-12-22T18:52:44.164Z,8.00
2018-12-22T18:55:11.743Z,8.00
2018-12-22T18:57:39.339Z,8.00
2018-12-22T19:00:20.291Z,8.10
2018-12-22T19:02:47.899Z,7.90
2018-12-22T19:05:16.591Z,7.90
2018-12-22T19:07:44.802Z,7.90
2018-12-22T19:10:23.025Z,8.00
2018-12-22T19:12:52.527Z,8.00
2018-12-22T19:15:28.384Z,8.00
2018-12-22T19:17:55.995Z,7.90
2018-12-22T19:20:29.718Z,8.00
2018-12-22T19:22:57.680Z,8.10
2018-12-22T19:25:27.143Z,8.10
2018-12-22T19:27:54.703Z,8.10
2018-12-22T19:30:22.560Z,8.10
2018-12-22T19:32:50.778Z,8.10
2018-12-22T19:35:18.491Z,8.20
2018-12-22T19:37:46.171Z,8.20
2018-12-22T19:40:13.755Z,8.20
2018-12-22T19:42:41.306Z,8.10
2018-12-22T19:45:08.911Z,8.10
2018-12-22T19:47:36.495Z,8.10
2018-12-22T19:50:05.815Z,8.20
2018-12-22T19:52:33.376Z,8.20
2018-12-22T19:55:01.030Z,8.20
2018-12-22T19:57:28.643Z,8.20
2018-12-22T19:59:57.331Z,8.30
2018-12-22T20:02:25.202Z,8.30
2018-12-22T20:04:52.851Z,8.40
2018-12-22T20:07:20.813Z,8.30
2018-12-22T20:09:48.542Z,8.40
2018-12-22T20:12:16.354Z,8.30
2018-12-22T20:14:43.993Z,8.30
2018-12-22T20:17:11.634Z,8.40
2018-12-22T20:19:39.462Z,8.50
2018-12-22T20:22:07.139Z,8.40
2018-12-22T20:24:34.855Z,8.30
2018-12-22T20:27:02.434Z,8.40
2018-12-22T20:29:30.142Z,8.40
2018-12-22T20:31:57.860Z,8.40
2018-12-22T20:34:25.518Z,8.40
2018-12-22T20:36:53.244Z,8.50
2018-12-22T20:39:20.887Z,8.50
2018-12-22T20:41:48.935Z,8.60
2018-12-22T20:44:17.312Z,8.50
2018-12-22T20:46:45.385Z,8.40
2018-12-22T20:49:13.609Z,8.40
2018-12-22T20:51:41.536Z,8.30
2018-12-22T20:54:10.998Z,8.40
2018-12-22T20:56:38.922Z,8.40
2018-12-22T20:59:06.872Z,8.40
2018-12-22T21:01:34.733Z,8.40
2018-12-22T21:04:02.598Z,8.50
2018-12-22T21:06:32.761Z,8.40
2018-12-22T21:09:01.356Z,8.40
2018-12-22T21:11:29.816Z,8.40
2018-12-22T21:13:57.757Z,8.40
2018-12-22T21:16:26.691Z,8.40
2018-12-22T21:18:54.727Z,8.50
2018-12-22T21:21:22.578Z,8.30
2018-12-22T21:23:51.261Z,8.30
2018-12-22T21:26:19.946Z,8.30
2018-12-22T21:28:47.815Z,8.30
2018-12-22T21:31:15.803Z,8.20
2018-12-22T21:33:43.446Z,8.20
2018-12-22T21:36:11.644Z,8.30
2018-12-22T21:38:39.389Z,8.20
2018-12-22T21:41:07.690Z,8.20
2018-12-22T21:43:35.267Z,8.20
2018-12-22T21:46:02.854Z,8.20
2018-12-22T21:48:30.422Z,8.20
2018-12-22T21:50:58.061Z,8.20
2018-12-22T21:53:25.626Z,8.30
2018-12-22T21:55:53.215Z,8.30
2018-12-22T21:58:21.272Z,8.30
2018-12-22T22:00:48.851Z,8.30
2018-12-22T22:03:16.410Z,8.30
2018-12-22T22:05:43.991Z,8.10
2018-12-22T22:08:11.668Z,8.10
2018-12-22T22:10:39.247Z,8.00
2018-12-22T22:13:06.807Z,8.20
2018-12-22T22:15:34.395Z,8.30
2018-12-22T22:18:01.951Z,8.20
2018-12-22T22:20:29.530Z,8.10
2018-12-22T22:22:58.515Z,8.10
2018-12-22T22:25:26.201Z,8.20
2018-12-22T22:27:53.780Z,8.10
2018-12-22T22:30:21.336Z,8.10
2018-12-22T22:32:48.955Z,8.20
2018-12-22T22:35:16.515Z,8.20
2018-12-22T22:37:44.111Z,8.20
2018-12-22T22:40:11.671Z,8.20
2018-12-22T22:42:39.255Z,8.20
2018-12-22T22:45:06.926Z,8.30
2018-12-22T22:47:35.219Z,8.10
2018-12-22T22:50:02.784Z,8.00
2018-12-22T22:52:32.679Z,8.00
2018-12-22T22:55:00.359Z,8.00
2018-12-22T22:57:28.055Z,8.00
2018-12-22T22:59:55.614Z,8.10
2018-12-22T23:02:23.199Z,8.10
2018-12-22T23:04:54.484Z,8.20
2018-12-22T23:07:20.383Z,8.20
2018-12-22T23:09:47.976Z,8.30
2018-12-22T23:12:15.530Z,8.30
2018-12-22T23:14:43.115Z,8.30
2018-12-22T23:17:10.751Z,8.30
2018-12-22T23:19:38.335Z,8.30
2018-12-22T23:22:05.895Z,8.20
2018-12-22T23:24:33.479Z,8.20
2018-12-22T23:27:01.039Z,8.30
2018-12-22T23:29:28.756Z,8.30
2018-12-22T23:31:56.407Z,8.40
2018-12-22T23:34:24.007Z,8.40
2018-12-22T23:36:51.562Z,8.40
2018-12-22T23:39:19.158Z,8.30
2018-12-22T23:41:46.827Z,8.20
2018-12-22T23:44:14.539Z,8.20
2018-12-22T23:46:42.215Z,8.30
2018-12-22T23:49:09.794Z,8.30
2018-12-22T23:51:37.379Z,8.30
2018-12-22T23:54:04.935Z,8.30
2018-12-22T23:56:32.519Z,8.10
2018-12-22T23:59:00.074Z,8.20
